createdAt,value
2018-11-22T12:16:05.289Z,48.87
2018-11-22T12:17:09.276Z,39.27
2018-11-22T12:18:12.760Z,43.63
2018-11-22T12:19:16.754Z,48.40
2018-11-22T12:20:21.242Z,46.50
2018-11-22T12:21:24.653Z,42.70
2018-11-22T12:22:28.097Z,43.10
2018-11-22T12:23:31.721Z,44.60
2018-11-22T12:24:35.259Z,52.70
2018-11-22T12:25:38.696Z,41.73
2018-11-22T12:26:43.015Z,39.20
2018-11-22T12:27:47.839Z,42.40
2018-11-22T12:28:51.466Z,43.60
2018-11-22T12:29:54.887Z,36.83
2018-11-22T12:31:06.088Z,44.57
2018-11-22T12:32:34.115Z,35.40
2018-11-22T12:33:38.608Z,35.50
2018-11-22T12:34:48.320Z,41.87
2018-11-22T12:35:57.758Z,34.53
2018-11-22T12:37:07.863Z,38.03
2018-11-22T12:38:17.395Z,38.80
2018-11-22T12:39:22.016Z,38.93
2018-11-22T12:40:26.531Z,38.90
2018-11-22T12:41:31.448Z,32.73
2018-11-22T12:42:36.016Z,31.83
2018-11-22T12:43:40.733Z,37.63
2018-11-22T12:44:45.008Z,34.23
2018-11-22T12:45:49.874Z,31.60
2018-11-22T12:46:54.488Z,34.70
2018-11-22T12:47:59.548Z,28.87
2018-11-22T12:49:04.358Z,27.43
2018-11-22T12:50:10.586Z,34.53
2018-11-22T12:51:15.875Z,30.30
2018-11-22T12:52:20.210Z,32.10
2018-11-22T12:53:24.772Z,36.57
2018-11-22T12:54:29.569Z,30.97
2018-11-22T12:55:34.255Z,31.17
2018-11-22T12:56:39.163Z,33.43
2018-11-22T12:57:44.209Z,39.00
2018-11-22T12:58:48.926Z,31.00
2018-11-22T12:59:53.532Z,31.10
2018-11-22T13:00:58.967Z,31.07
2018-11-22T13:02:03.706Z,28.47
2018-11-22T13:03:07.840Z,34.03
2018-11-22T13:04:12.450Z,29.47
2018-11-22T13:05:18.266Z,32.83
2018-11-22T13:06:23.225Z,29.77
2018-11-22T13:07:27.418Z,30.63
2018-11-22T13:08:32.163Z,34.27
2018-11-22T13:09:36.644Z,28.37
2018-11-22T13:10:41.419Z,31.10
2018-11-22T13:11:47.746Z,33.90
2018-11-22T13:12:50.925Z,29.67
2018-11-22T13:13:55.824Z,32.70
2018-11-22T13:15:00.273Z,27.73
2018-11-22T13:16:05.005Z,26.63
2018-11-22T13:17:09.880Z,28.90
2018-11-22T13:18:14.610Z,26.40
2018-11-22T13:19:20.014Z,29.10
2018-11-22T13:20:24.477Z,27.70
2018-11-22T13:21:28.771Z,28.80
2018-11-22T13:22:33.121Z,24.30
2018-11-22T13:23:37.662Z,30.77
2018-11-22T13:24:41.990Z,24.00
2018-11-22T13:25:46.730Z,26.60
2018-11-22T13:26:51.192Z,30.60
2018-11-22T13:27:55.715Z,27.97
2018-11-22T13:28:59.846Z,28.23
2018-11-22T13:30:04.509Z,31.07
2018-11-22T13:31:10.002Z,27.33
2018-11-22T13:32:21.246Z,23.77
2018-11-22T13:33:19.527Z,25.13
2018-11-22T13:34:23.821Z,26.70
2018-11-22T13:35:28.388Z,31.67
2018-11-22T13:36:33.117Z,29.27
2018-11-22T13:37:37.675Z,28.70
2018-11-22T13:38:42.246Z,24.77
2018-11-22T13:39:46.882Z,29.43
2018-11-22T13:40:51.538Z,25.93
2018-11-22T13:41:56.155Z,27.80
2018-11-22T13:43:00.389Z,24.10
2018-11-22T13:44:04.777Z,27.83
2018-11-22T13:45:11.672Z,25.57
2018-11-22T13:46:16.360Z,30.63
2018-11-22T13:47:21.137Z,27.90
2018-11-22T13:48:25.639Z,34.73
2018-11-22T13:49:30.239Z,22.00
2018-11-22T13:50:41.713Z,23.40
2018-11-22T13:51:40.700Z,25.70
2018-11-22T13:52:46.839Z,25.50
2018-11-22T13:53:51.459Z,25.97
2018-11-22T13:54:55.922Z,23.90
2018-11-22T13:56:00.635Z,23.60
2018-11-22T13:57:05.416Z,23.77
2018-11-22T13:58:10.014Z,27.57
2018-11-22T13:59:15.614Z,29.63
2018-11-22T14:00:28.306Z,28.33
2018-11-22T14:01:32.846Z,23.37
2018-11-22T14:02:37.430Z,27.77
2018-11-22T14:03:41.926Z,22.00
2018-11-22T14:04:46.596Z,25.67
2018-11-22T14:05:51.306Z,21.43
2018-11-22T14:06:55.942Z,23.10
2018-11-22T14:08:00.739Z,31.30
2018-11-22T14:09:07.310Z,21.30
2018-11-22T14:10:14.196Z,23.77
2018-11-22T14:11:18.797Z,28.33
2018-11-22T14:12:23.670Z,18.20
2018-11-22T14:13:28.255Z,32.00
2018-11-22T14:14:32.817Z,26.87
2018-11-22T14:15:37.401Z,26.10
2018-11-22T14:16:41.832Z,27.33
2018-11-22T14:17:47.002Z,25.60
2018-11-22T14:18:52.704Z,22.77
2018-11-22T14:19:57.400Z,33.93
2018-11-22T14:21:01.839Z,25.03
2018-11-22T14:22:06.686Z,21.97
2018-11-22T14:23:11.347Z,27.37
2018-11-22T14:24:16.241Z,26.90
2018-11-22T14:25:20.765Z,21.53
2018-11-22T14:26:24.711Z,26.67
2018-11-22T14:27:28.425Z,23.00
2018-11-22T14:28:31.860Z,26.33
2018-11-22T14:29:35.527Z,33.30
2018-11-22T14:30:38.949Z,21.50
2018-11-22T14:31:42.387Z,39.20
2018-11-22T14:32:46.623Z,27.77
2018-11-22T14:33:50.039Z,24.20
2018-11-22T14:34:56.535Z,23.10
2018-11-22T14:35:57.142Z,30.57
2018-11-22T14:37:01.222Z,26.63
2018-11-22T14:38:04.991Z,27.40
2018-11-22T14:39:08.675Z,20.20
2018-11-22T14:40:14.514Z,22.70
2018-11-22T14:41:18.367Z,25.17
2018-11-22T14:42:20.883Z,26.40
2018-11-22T14:43:24.740Z,26.53
2018-11-22T14:44:28.179Z,25.17
2018-11-22T14:45:32.364Z,25.33
2018-11-22T14:46:35.910Z,25.03
2018-11-22T14:47:39.627Z,29.73
2018-11-22T14:48:43.043Z,25.23
2018-11-22T14:49:46.570Z,24.87
2018-11-22T14:51:01.550Z,25.20
2018-11-22T14:52:05.302Z,21.73
2018-11-22T14:53:12.720Z,29.13
2018-11-22T14:54:16.558Z,20.90
2018-11-22T14:55:20.257Z,23.33
2018-11-22T14:56:23.693Z,22.87
2018-11-22T14:57:27.156Z,25.70
2018-11-22T14:58:30.634Z,26.40
2018-11-22T14:59:34.422Z,22.23
2018-11-22T15:00:37.894Z,18.43
2018-11-22T15:01:41.337Z,24.83
2018-11-22T15:02:47.072Z,24.90
2018-11-22T15:03:50.764Z,21.53
2018-11-22T15:04:54.207Z,19.40
2018-11-22T15:05:57.634Z,26.73
2018-11-22T15:07:01.101Z,23.97
2018-11-22T15:08:04.559Z,23.70
2018-11-22T15:09:09.496Z,20.60
2018-11-22T15:10:14.234Z,15.97
2018-11-22T15:11:17.926Z,18.73
2018-11-22T15:12:21.447Z,16.70
2018-11-22T15:13:24.850Z,21.20
2018-11-22T15:14:28.281Z,17.20
2018-11-22T15:15:31.831Z,19.10
2018-11-22T15:16:35.978Z,23.47
2018-11-22T15:17:39.927Z,22.93
2018-11-22T15:18:43.374Z,21.43
2018-11-22T15:19:46.838Z,20.20
2018-11-22T15:20:50.278Z,17.10
2018-11-22T15:21:53.697Z,24.37
2018-11-22T15:22:57.116Z,16.43
2018-11-22T15:24:00.696Z,21.93
2018-11-22T15:25:04.286Z,22.57
2018-11-22T15:26:07.761Z,22.87
2018-11-22T15:27:11.202Z,23.07
2018-11-22T15:28:15.633Z,19.70
2018-11-22T15:29:19.218Z,20.30
2018-11-22T15:30:27.086Z,22.93
2018-11-22T15:31:30.840Z,18.97
2018-11-22T15:32:34.269Z,17.17
2018-11-22T15:33:37.824Z,22.07
2018-11-22T15:34:41.254Z,19.03
2018-11-22T15:35:45.055Z,18.50
2018-11-22T15:36:48.525Z,20.90
2018-11-22T15:37:52.416Z,19.83
2018-11-22T15:38:56.021Z,18.27
2018-11-22T15:39:59.595Z,22.37
2018-11-22T15:41:03.038Z,13.50
2018-11-22T15:42:06.470Z,16.43
2018-11-22T15:43:09.908Z,18.03
2018-11-22T15:44:13.453Z,17.23
2018-11-22T15:45:18.970Z,14.70
2018-11-22T15:46:22.492Z,13.80
2018-11-22T15:47:25.910Z,18.40
2018-11-22T15:48:29.309Z,21.53
2018-11-22T15:49:32.783Z,16.73
2018-11-22T15:50:36.207Z,21.50
2018-11-22T15:51:39.631Z,16.50
2018-11-22T15:52:43.577Z,18.47
2018-11-22T15:53:47.155Z,15.93
2018-11-22T15:54:50.615Z,17.03
2018-11-22T15:55:54.046Z,18.80
2018-11-22T15:56:57.482Z,14.83
2018-11-22T15:58:01.350Z,18.80
2018-11-22T15:59:04.794Z,15.40
2018-11-22T16:00:16.052Z,20.30
2018-11-22T16:01:19.728Z,18.63
2018-11-22T16:02:23.146Z,16.00
2018-11-22T16:03:26.576Z,17.00
2018-11-22T16:04:30.014Z,14.87
2018-11-22T16:05:33.776Z,16.37
2018-11-22T16:06:37.248Z,14.30
2018-11-22T16:07:41.175Z,13.33
2018-11-22T16:08:44.823Z,13.33
2018-11-22T16:09:48.407Z,13.13
2018-11-22T16:10:51.999Z,15.20
2018-11-22T16:11:55.756Z,14.17
2018-11-22T16:13:01.005Z,12.87
2018-11-22T16:14:05.378Z,14.20
2018-11-22T16:15:15.114Z,13.17
2018-11-22T16:16:18.759Z,10.90
2018-11-22T16:17:22.324Z,14.30
2018-11-22T16:18:25.707Z,13.30
2018-11-22T16:19:29.175Z,13.17
2018-11-22T16:20:32.694Z,15.00
2018-11-22T16:21:36.245Z,13.03
2018-11-22T16:22:40.167Z,13.97
2018-11-22T16:23:43.883Z,13.43
2018-11-22T16:24:47.848Z,11.77
2018-11-22T16:25:51.285Z,16.73
2018-11-22T16:26:54.742Z,15.20
2018-11-22T16:27:58.166Z,12.10
2018-11-22T16:29:01.637Z,10.70
2018-11-22T16:30:07.261Z,13.23
2018-11-22T16:31:10.713Z,11.90
2018-11-22T16:32:14.446Z,11.03
2018-11-22T16:33:18.114Z,12.20
2018-11-22T16:34:22.303Z,11.73
2018-11-22T16:35:33.201Z,16.63
2018-11-22T16:36:30.201Z,12.57
2018-11-22T16:37:33.613Z,11.77
2018-11-22T16:38:37.044Z,12.33
2018-11-22T16:39:40.484Z,12.73
2018-11-22T16:40:45.489Z,11.13
2018-11-22T16:41:49.016Z,11.80
2018-11-22T16:42:53.242Z,13.43
2018-11-22T16:43:59.623Z,11.80
2018-11-22T16:45:00.201Z,9.00
2018-11-22T16:46:03.646Z,19.73
2018-11-22T16:47:07.051Z,12.87
2018-11-22T16:48:12.048Z,10.87
2018-11-22T16:49:15.481Z,14.37
2018-11-22T16:50:22.900Z,14.43
2018-11-22T16:51:26.358Z,12.30
2018-11-22T16:52:29.780Z,12.73
2018-11-22T16:53:33.164Z,12.80
2018-11-22T16:54:36.596Z,12.90
2018-11-22T16:55:40.024Z,17.13
2018-11-22T16:56:43.537Z,11.00
2018-11-22T16:57:48.373Z,9.57
2018-11-22T16:58:51.833Z,14.00
2018-11-22T16:59:55.223Z,12.30
2018-11-22T17:00:58.674Z,12.37
2018-11-22T17:02:02.100Z,12.20
2018-11-22T17:03:10.332Z,12.00
2018-11-22T17:04:13.821Z,14.80
2018-11-22T17:05:17.538Z,12.20
2018-11-22T17:06:21.036Z,12.20
2018-11-22T17:07:24.482Z,10.53
2018-11-22T17:08:27.901Z,13.70
2018-11-22T17:09:31.444Z,11.87
2018-11-22T17:10:36.369Z,9.40
2018-11-22T17:11:39.795Z,11.80
2018-11-22T17:12:44.211Z,14.50
2018-11-22T17:13:47.783Z,13.23
2018-11-22T17:14:51.196Z,12.90
2018-11-22T17:15:54.597Z,13.13
2018-11-22T17:16:58.030Z,11.50
2018-11-22T17:18:01.879Z,15.20
2018-11-22T17:19:05.381Z,14.13
2018-11-22T17:20:11.090Z,13.17
2018-11-22T17:21:14.498Z,17.53
2018-11-22T17:22:17.958Z,14.10
2018-11-22T17:23:21.398Z,16.43
2018-11-22T17:24:24.795Z,11.23
2018-11-22T17:25:29.690Z,10.87
2018-11-22T17:26:33.150Z,10.00
2018-11-22T17:27:36.641Z,12.07
2018-11-22T17:28:40.156Z,12.87
2018-11-22T17:29:43.615Z,11.73
2018-11-22T17:30:47.109Z,12.20
2018-11-22T17:31:50.957Z,11.00
2018-11-22T17:32:56.674Z,15.20
2018-11-22T17:34:00.381Z,14.53
2018-11-22T17:35:04.355Z,12.50
2018-11-22T17:36:07.931Z,13.80
2018-11-22T17:37:12.214Z,14.83
2018-11-22T17:38:16.430Z,13.63
2018-11-22T17:39:21.342Z,13.40
2018-11-22T17:40:29.121Z,13.23
2018-11-22T17:41:32.596Z,14.40
2018-11-22T17:42:36.053Z,11.73
2018-11-22T17:43:39.503Z,11.53
2018-11-22T17:44:43.917Z,12.30
2018-11-22T17:45:49.001Z,10.90
2018-11-22T17:46:52.430Z,10.30
2018-11-22T17:47:55.897Z,13.20
2018-11-22T17:48:59.361Z,10.83
2018-11-22T17:50:02.751Z,11.73
2018-11-22T17:51:06.295Z,10.37
2018-11-22T17:52:09.742Z,10.23
2018-11-22T17:53:14.196Z,11.57
2018-11-22T17:54:17.893Z,13.43
2018-11-22T17:55:22.867Z,12.20
2018-11-22T17:56:26.278Z,17.03
2018-11-22T17:57:29.709Z,13.30
2018-11-22T17:58:33.146Z,9.33
2018-11-22T17:59:36.941Z,10.33
2018-11-22T18:00:42.966Z,11.53
2018-11-22T18:01:46.421Z,10.07
2018-11-22T18:02:51.270Z,11.90
2018-11-22T18:03:55.177Z,11.07
2018-11-22T18:04:58.622Z,12.27
2018-11-22T18:06:02.095Z,12.83
2018-11-22T18:07:05.980Z,12.17
2018-11-22T18:08:09.422Z,11.00
2018-11-22T18:09:12.921Z,13.67
2018-11-22T18:10:19.036Z,12.67
2018-11-22T18:11:22.457Z,12.00
2018-11-22T18:12:25.909Z,14.70
2018-11-22T18:13:29.415Z,11.47
2018-11-22T18:14:32.868Z,13.80
2018-11-22T18:16:08.084Z,13.13
2018-11-22T18:17:11.476Z,11.70
2018-11-22T18:18:14.966Z,11.93
2018-11-22T18:19:18.470Z,11.57
2018-11-22T18:20:23.184Z,14.80
2018-11-22T18:21:26.588Z,12.03
2018-11-22T18:22:30.000Z,13.23
2018-11-22T18:23:33.448Z,12.37
2018-11-22T18:24:36.843Z,12.27
2018-11-22T18:25:40.244Z,13.10
2018-11-22T18:26:43.715Z,16.00
2018-11-22T18:27:47.296Z,11.60
2018-11-22T18:28:50.733Z,11.67
2018-11-22T18:29:54.179Z,10.57
2018-11-22T18:30:57.625Z,16.37
2018-11-22T18:32:01.012Z,20.47
2018-11-22T18:33:05.890Z,11.43
2018-11-22T18:34:09.321Z,10.33
2018-11-22T18:35:13.468Z,11.03
2018-11-22T18:36:16.927Z,12.77
2018-11-22T18:37:20.359Z,9.93
2018-11-22T18:38:23.867Z,10.80
2018-11-22T18:39:27.268Z,12.37
2018-11-22T18:40:32.102Z,12.47
2018-11-22T18:41:37.097Z,9.57
2018-11-22T18:42:40.548Z,12.40
2018-11-22T18:43:44.814Z,13.40
2018-11-22T18:44:48.272Z,12.20
2018-11-22T18:45:51.882Z,11.80
2018-11-22T18:46:56.801Z,11.43
2018-11-22T18:48:01.318Z,11.07
2018-11-22T18:49:05.162Z,11.23
2018-11-22T18:50:22.100Z,14.00
2018-11-22T18:51:25.513Z,13.63
2018-11-22T18:52:28.926Z,13.57
2018-11-22T18:53:32.313Z,10.83
2018-11-22T18:54:35.730Z,13.57
2018-11-22T18:55:39.144Z,12.10
2018-11-22T18:56:42.577Z,11.23
2018-11-22T18:57:46.324Z,9.47
2018-11-22T18:58:49.789Z,9.70
2018-11-22T18:59:53.490Z,10.53
2018-11-22T19:00:57.281Z,11.97
2018-11-22T19:02:01.000Z,9.20
2018-11-22T19:03:09.052Z,10.50
2018-11-22T19:04:12.794Z,10.90
2018-11-22T19:05:16.888Z,9.00
2018-11-22T19:06:20.386Z,11.90
2018-11-22T19:07:24.012Z,12.93
2018-11-22T19:08:27.575Z,9.43
2018-11-22T19:09:31.319Z,10.40
2018-11-22T19:10:36.343Z,9.50
2018-11-22T19:11:39.921Z,9.27
2018-11-22T19:12:44.617Z,11.67
2018-11-22T19:13:48.218Z,9.27
2018-11-22T19:14:51.812Z,9.13
2018-11-22T19:15:55.314Z,9.17
2018-11-22T19:16:58.793Z,11.10
2018-11-22T19:18:02.428Z,9.40
2018-11-22T19:19:05.984Z,7.70
2018-11-22T19:20:12.004Z,10.43
2018-11-22T19:21:15.448Z,8.97
2018-11-22T19:22:18.902Z,10.30
2018-11-22T19:23:22.333Z,9.20
2018-11-22T19:24:25.740Z,8.87
2018-11-22T19:25:29.111Z,8.10
2018-11-22T19:26:32.496Z,8.57
2018-11-22T19:27:35.988Z,9.67
2018-11-22T19:28:39.390Z,10.40
2018-11-22T19:29:43.139Z,7.00
2018-11-22T19:30:47.967Z,9.47
2018-11-22T19:31:51.415Z,8.13
2018-11-22T19:32:55.969Z,13.80
2018-11-22T19:33:59.406Z,10.00
2018-11-22T19:35:02.829Z,8.93
2018-11-22T19:36:07.173Z,8.60
2018-11-22T19:37:10.609Z,13.03
2018-11-22T19:38:14.343Z,8.90
2018-11-22T19:39:18.061Z,8.57
2018-11-22T19:40:26.025Z,10.00
2018-11-22T19:41:29.464Z,7.50
2018-11-22T19:42:32.897Z,9.13
2018-11-22T19:43:36.333Z,8.30
2018-11-22T19:44:39.762Z,8.90
2018-11-22T19:45:44.829Z,7.67
2018-11-22T19:46:48.326Z,8.80
2018-11-22T19:47:52.017Z,8.60
2018-11-22T19:48:55.419Z,7.97
2018-11-22T19:49:58.857Z,8.57
2018-11-22T19:51:05.878Z,9.30
2018-11-22T19:52:05.882Z,12.67
2018-11-22T19:53:10.930Z,8.77
2018-11-22T19:54:14.520Z,7.40
2018-11-22T19:55:19.407Z,13.00
2018-11-22T19:56:22.870Z,14.80
2018-11-22T19:57:26.315Z,9.37
2018-11-22T19:58:29.728Z,10.20
2018-11-22T19:59:33.167Z,10.60
2018-11-22T20:00:36.651Z,8.23
2018-11-22T20:01:40.068Z,9.27
2018-11-22T20:02:44.194Z,11.27
2018-11-22T20:03:47.653Z,8.63
2018-11-22T20:04:51.132Z,9.17
2018-11-22T20:05:54.714Z,10.53
2018-11-22T20:06:58.214Z,10.63
2018-11-22T20:08:03.215Z,14.23
2018-11-22T20:09:09.021Z,8.90
2018-11-22T20:10:18.353Z,8.50
2018-11-22T20:11:21.849Z,7.83
2018-11-22T20:12:25.307Z,8.90
2018-11-22T20:13:28.782Z,8.30
2018-11-22T20:14:32.199Z,9.03
2018-11-22T20:15:35.819Z,12.40
2018-11-22T20:16:39.229Z,9.20
2018-11-22T20:17:43.332Z,10.10
2018-11-22T20:18:46.813Z,8.10
2018-11-22T20:19:50.239Z,11.10
2018-11-22T20:20:53.668Z,9.63
2018-11-22T20:21:57.113Z,7.10
2018-11-22T20:23:00.521Z,9.40
2018-11-22T20:24:03.988Z,8.67
2018-11-22T20:25:07.463Z,14.03
2018-11-22T20:26:10.909Z,7.97
2018-11-22T20:27:14.374Z,7.93
2018-11-22T20:28:17.829Z,8.37
2018-11-22T20:29:21.281Z,9.40
2018-11-22T20:30:26.772Z,9.73
2018-11-22T20:31:30.383Z,10.33
2018-11-22T20:32:38.766Z,9.13
2018-11-22T20:33:37.501Z,8.93
2018-11-22T20:34:41.001Z,8.63
2018-11-22T20:35:44.725Z,8.53
2018-11-22T20:36:48.215Z,9.17
2018-11-22T20:37:52.227Z,7.90
2018-11-22T20:38:55.744Z,8.40
2018-11-22T20:39:59.221Z,7.37
2018-11-22T20:41:02.681Z,9.60
2018-11-22T20:42:06.371Z,7.80
2018-11-22T20:43:10.080Z,9.43
2018-11-22T20:44:13.550Z,7.93
2018-11-22T20:45:18.386Z,8.00
2018-11-22T20:46:21.823Z,7.80
2018-11-22T20:47:25.272Z,9.80
2018-11-22T20:48:28.737Z,10.80
2018-11-22T20:49:32.234Z,9.90
2018-11-22T20:50:36.185Z,9.10
2018-11-22T20:51:39.666Z,13.10
2018-11-22T20:52:43.164Z,10.37
2018-11-22T20:53:46.602Z,8.43
2018-11-22T20:54:50.195Z,9.57
2018-11-22T20:55:53.648Z,10.50
2018-11-22T20:56:57.088Z,10.50
2018-11-22T20:58:01.943Z,9.27
2018-11-22T20:59:05.425Z,12.70
2018-11-22T21:00:12.752Z,8.33
2018-11-22T21:01:16.208Z,8.10
2018-11-22T21:02:19.627Z,8.33
2018-11-22T21:03:23.031Z,8.10
2018-11-22T21:04:26.471Z,7.90
2018-11-22T21:05:30.652Z,7.67
2018-11-22T21:06:34.453Z,14.90
2018-11-22T21:07:37.896Z,7.83
2018-11-22T21:08:48.432Z,8.77
2018-11-22T21:09:44.832Z,8.10
2018-11-22T21:10:48.385Z,9.17
2018-11-22T21:11:51.837Z,8.00
2018-11-22T21:12:55.277Z,7.90
2018-11-22T21:13:58.766Z,9.20
2018-11-22T21:15:02.220Z,8.60
2018-11-22T21:16:06.134Z,8.40
2018-11-22T21:17:09.544Z,9.23
2018-11-22T21:18:13.018Z,9.23
2018-11-22T21:19:16.492Z,10.30
2018-11-22T21:20:21.539Z,9.00
2018-11-22T21:21:25.057Z,11.23
2018-11-22T21:22:28.511Z,7.67
2018-11-22T21:23:31.924Z,7.80
2018-11-22T21:24:35.458Z,10.47
2018-11-22T21:25:38.978Z,7.47
2018-11-22T21:26:42.400Z,8.47
2018-11-22T21:27:46.052Z,7.80
2018-11-22T21:28:49.480Z,7.87
2018-11-22T21:29:52.907Z,9.53
2018-11-22T21:30:56.366Z,8.77
2018-11-22T21:31:59.843Z,7.23
2018-11-22T21:33:03.614Z,8.53
2018-11-22T21:34:07.077Z,9.63
2018-11-22T21:35:10.632Z,7.97
2018-11-22T21:36:14.106Z,10.50
2018-11-22T21:37:17.570Z,13.90
2018-11-22T21:38:20.994Z,7.40
2018-11-22T21:39:24.466Z,7.50
2018-11-22T21:40:28.561Z,8.67
2018-11-22T21:41:32.080Z,11.63
2018-11-22T21:42:35.489Z,8.20
2018-11-22T21:43:38.958Z,7.03
2018-11-22T21:44:42.463Z,12.10
2018-11-22T21:45:45.864Z,7.13
2018-11-22T21:46:49.281Z,7.77
2018-11-22T21:47:52.694Z,9.70
2018-11-22T21:48:56.069Z,6.97
2018-11-22T21:49:59.501Z,8.83
2018-11-22T21:51:02.988Z,8.40
2018-11-22T21:52:06.425Z,8.93
2018-11-22T21:53:09.878Z,6.30
2018-11-22T21:54:13.327Z,7.40
2018-11-22T21:55:20.315Z,7.00
2018-11-22T21:56:23.737Z,9.23
2018-11-22T21:57:27.161Z,9.40
2018-11-22T21:58:30.584Z,5.80
2018-11-22T21:59:34.151Z,14.87
2018-11-22T22:00:39.388Z,7.30
2018-11-22T22:01:42.811Z,10.63
2018-11-22T22:02:52.502Z,13.50
2018-11-22T22:03:51.389Z,11.90
2018-11-22T22:04:54.798Z,6.53
2018-11-22T22:05:58.192Z,11.77
2018-11-22T22:07:01.602Z,13.20
2018-11-22T22:08:05.075Z,7.90
2018-11-22T22:09:09.032Z,5.53
2018-11-22T22:10:12.557Z,11.73
2018-11-22T22:11:16.005Z,6.73
2018-11-22T22:12:19.403Z,12.50
2018-11-22T22:13:22.872Z,6.20
2018-11-22T22:14:26.291Z,7.07
2018-11-22T22:15:31.045Z,4.40
2018-11-22T22:16:34.493Z,6.60
2018-11-22T22:17:38.299Z,7.67
2018-11-22T22:18:41.719Z,7.07
2018-11-22T22:19:45.271Z,10.93
2018-11-22T22:20:48.754Z,8.77
2018-11-22T22:21:52.185Z,9.03
2018-11-22T22:22:55.622Z,5.30
2018-11-22T22:23:59.016Z,8.50
2018-11-22T22:25:02.396Z,6.10
2018-11-22T22:26:05.934Z,5.93
2018-11-22T22:27:09.449Z,6.43
2018-11-22T22:28:12.926Z,7.80
2018-11-22T22:29:16.866Z,9.33
2018-11-22T22:30:25.774Z,6.23
2018-11-22T22:31:29.168Z,5.30
2018-11-22T22:32:32.680Z,4.80
2018-11-22T22:33:36.106Z,5.40
2018-11-22T22:34:39.501Z,6.40
2018-11-22T22:35:42.929Z,5.63
2018-11-22T22:36:46.373Z,6.17
2018-11-22T22:37:49.896Z,5.03
2018-11-22T22:38:53.419Z,5.33
2018-11-22T22:39:59.678Z,5.77
2018-11-22T22:41:00.272Z,7.80
2018-11-22T22:42:03.932Z,5.53
2018-11-22T22:43:07.393Z,6.33
2018-11-22T22:44:10.797Z,4.53
2018-11-22T22:45:15.317Z,5.27
2018-11-22T22:46:18.756Z,4.90
2018-11-22T22:47:22.150Z,5.27
2018-11-22T22:48:25.650Z,8.47
2018-11-22T22:49:29.231Z,6.50
2018-11-22T22:50:33.107Z,6.20
2018-11-22T22:51:36.509Z,4.63
2018-11-22T22:52:39.921Z,9.87
2018-11-22T22:53:43.361Z,3.90
2018-11-22T22:54:46.790Z,6.53
2018-11-22T22:55:50.190Z,7.23
2018-11-22T22:56:53.589Z,6.20
2018-11-22T22:57:57.000Z,5.07
2018-11-22T22:59:00.422Z,6.73
2018-11-22T23:00:03.949Z,4.90
2018-11-22T23:01:07.495Z,7.27
2018-11-22T23:02:10.918Z,6.10
2018-11-22T23:03:14.652Z,5.47
2018-11-22T23:04:18.188Z,4.40
2018-11-22T23:05:22.068Z,5.83
2018-11-22T23:06:25.485Z,4.87
2018-11-22T23:07:28.867Z,6.40
2018-11-22T23:08:32.267Z,7.10
2018-11-22T23:09:35.854Z,5.07
2018-11-22T23:10:39.358Z,6.33
2018-11-22T23:11:42.834Z,6.10
2018-11-22T23:12:46.255Z,4.10
2018-11-22T23:13:49.632Z,3.70
2018-11-22T23:14:53.062Z,5.50
2018-11-22T23:15:56.480Z,4.70
2018-11-22T23:16:59.920Z,4.17
2018-11-22T23:18:03.361Z,4.90
2018-11-22T23:19:06.783Z,4.13
2018-11-22T23:20:12.986Z,4.80
2018-11-22T23:21:16.443Z,13.47
2018-11-22T23:22:19.858Z,3.70
2018-11-22T23:23:23.268Z,5.63
2018-11-22T23:24:26.647Z,4.00
2018-11-22T23:25:30.618Z,5.53
2018-11-22T23:26:34.055Z,5.70
2018-11-22T23:27:37.818Z,4.70
2018-11-22T23:28:41.233Z,8.23
2018-11-22T23:29:44.639Z,6.70
2018-11-22T23:30:48.091Z,5.40
2018-11-22T23:31:51.734Z,3.40
2018-11-22T23:32:57.466Z,3.80
2018-11-22T23:34:00.862Z,5.10
2018-11-22T23:35:04.868Z,4.00
2018-11-22T23:36:08.316Z,7.80
2018-11-22T23:37:11.780Z,6.67
2018-11-22T23:38:15.203Z,4.70
2018-11-22T23:39:18.641Z,6.40
2018-11-22T23:40:24.295Z,8.03
2018-11-22T23:41:27.710Z,3.90
2018-11-22T23:42:31.184Z,4.53
2018-11-22T23:43:34.592Z,3.83
2018-11-22T23:44:38.087Z,4.87
2018-11-22T23:45:41.668Z,3.77
2018-11-22T23:46:45.119Z,5.27
2018-11-22T23:47:49.431Z,3.50
2018-11-22T23:48:52.865Z,4.77
2018-11-22T23:49:56.265Z,3.40
2018-11-22T23:50:59.696Z,3.00
2018-11-22T23:52:03.099Z,7.70
2018-11-22T23:53:06.519Z,3.63
2018-11-22T23:54:09.970Z,4.97
2018-11-22T23:55:13.389Z,4.93
2018-11-22T23:56:17.139Z,4.23
2018-11-22T23:57:20.794Z,3.90
2018-11-22T23:58:24.276Z,3.47
2018-11-22T23:59:27.639Z,4.53
